Авиационная погода в аэропорту Семей

Регион: 
Погода METAR: 
UASS 221200Z 11003MPS CAVOK M23/M25 Q1031 NOSIG RMK QFE752/1002
Время наблюдения
2022-01-22T12:00:00Z
Температура C
-23.0
Точка росы
-25.0
Направление ветра
110
Скорость ветра (узлы)
6
Метео видимость
6.21
Облачность
CAVOK
Нижняя граница облачности (футы)
Явления погоды
Условия полета
VFR
Аэропорт подробнее: